Station: Hindmarsh Island  

  Atmospheric Gas Attenuation - ITU Rec 676-11   ----------------- dB/100km -----------------
Date Time Temp RH % AH g/m3 Dew Point Wind Direction Speed kph Gust kph Barometer mB Rainfall Since 9am 24GHz 47GHz 76GHz 122GHz 134GHz 241GHz
03/09 10:30 15.6 80 10.64 12.2 28 35 1017.7 0 23.8 28.9 47.4 124.7 123.9 427.7
03/09 10:20 15.2 82 10.64 12.2 24 33 1017.7 0 23.9 29.0 47.7 125.4 124.5 429.9
03/09 10:10 15.3 84 10.97 12.6 26 35 1017.7 0 24.6 29.6 49.0 129.0 129.0 445.5
03/09 10:00 14.9 85 10.83 12.4 28 37 1017.6 0 24.3 29.4 48.7 128.0 127.7 440.9
03/09 09:50 14.9 88 11.22 12.9 26 35 1017.5 0 25.1 30.1 50.3 132.5 133.2 460.2
03/09 09:40 14.4 88 10.88 12.4 32 43 1017.4 0 24.4 29.7 49.2 129.4 129.2 446.2
03/09 09:30 14.4 89 11 12.6 30 44 1017.3 0 24.7 29.9 49.7 130.8 130.9 452.1
03/09 09:20 14.8 91 11.53 13.3 17 26 1017.3 0 25.8 30.7 51.8 136.3 137.8 476.3
03/09 09:10 14.3 91 11.18 12.9 22 30 1017.3 0 25.1 30.3 50.5 133.1 133.6 461.7
03/09 09:00 14 93 11.22 12.9 19 28 1017.2 0 25.2 30.4 50.9 134.0 134.7 465.5
03/09 08:50 14 93 11.22 12.9 19 24 1017.1 0.4 25.2 30.4 50.9 134.0 134.7 465.5
03/09 08:40 13.9 92 11.03 12.6 24 32 1016.9 0.4 24.8 30.1 50.1 131.9 132.1 456.4
03/09 08:30 14.1 91 11.04 12.7 22 30 1016.8 0.4 24.8 30.1 50.0 131.7 131.9 455.7
03/09 08:20 14.6 86 10.76 12.3 30 37 1016.6 0.2 24.2 29.4 48.5 127.6 127.1 438.8
03/09 08:10 15.2 78 10.12 11.4 30 43 1016.3 0 22.8 28.1 45.4 119.4 117.2 404.3
03/09 08:00 15 78 10 11.2 30 44 1016 0 22.5 27.9 45.0 118.3 115.8 399.5
03/09 07:50 15.2 79 10.25 11.6 26 35 1015.8 0 23.0 28.3 45.9 120.8 118.9 410.4
03/09 07:40 14.8 80 10.13 11.4 26 35 1015.6 0 22.8 28.2 45.6 120.0 117.9 406.7
03/09 07:30 14.5 80 9.95 11.1 28 39 1015.5 0 22.4 28.0 45.1 118.5 115.8 399.5
03/09 07:20 14.3 80 9.83 10.9 24 35 1015.3 0 22.2 27.9 44.7 117.4 114.5 394.7
03/09 07:10 14.3 81 9.95 11.1 24 35 1015.4 0 22.5 28.1 45.2 118.8 116.1 400.5
03/09 07:00 14.2 82 10.01 11.2 26 39 1015.2 0 22.6 28.2 45.5 119.6 117.1 403.9
03/09 06:50 14.1 82 9.95 11.1 26 35 1015 0 22.5 28.1 45.3 119.0 116.4 401.4
03/09 06:40 14.1 82 9.95 11.1 24 39 1015.1 0 22.5 28.1 45.3 119.0 116.4 401.5
03/09 06:30 14 82 9.89 11 19 35 1015 0 22.3 28.0 45.1 118.5 115.7 399.0
03/09 06:20 13.9 81 9.71 10.7 17 26 1014.8 0 22.0 27.8 44.4 116.6 113.4 390.8
03/09 06:10 13.9 81 9.71 10.7 19 28 1014.7 0 22.0 27.8 44.4 116.6 113.3 390.8
03/09 06:00 13.7 82 9.71 10.7 17 28 1014.6 0 22.0 27.8 44.5 116.9 113.6 391.8
03/09 05:50 13.7 82 9.71 10.7 19 24 1014.5 0 22.0 27.8 44.5 116.9 113.6 391.7
03/09 05:40 13.8 81 9.65 10.6 24 33 1014.3 0 21.8 27.7 44.1 116.0 112.6 388.3
03/09 05:30 13.9 79 9.47 10.3 26 37 1014.1 0 21.4 27.3 43.3 113.9 110.0 379.1
03/09 05:20 14 79 9.53 10.4 20 26 1014 0 21.6 27.4 43.5 114.4 110.7 381.5
03/09 05:10 13.8 80 9.53 10.4 20 30 1013.9 0 21.6 27.4 43.6 114.7 111.0 382.4
03/09 05:00 13.8 80 9.53 10.4 22 37 1013.9 0 21.6 27.4 43.6 114.7 111.0 382.4
03/09 04:50 13.7 81 9.59 10.5 20 28 1013.9 0 21.7 27.6 43.9 115.5 111.9 385.8
03/09 04:40 13.6 81 9.53 10.4 22 30 1013.9 0 21.6 27.5 43.7 115.0 111.2 383.4
03/09 04:30 13.4 81 9.42 10.2 24 39 1013.8 0 21.4 27.4 43.4 114.0 110.0 379.1
03/09 04:20 13.1 81 9.24 9.9 26 39 1013.7 0 21.0 27.2 42.8 112.4 108.0 371.9
03/09 04:10 13.1 81 9.24 9.9 28 37 1013.5 0 21.0 27.2 42.8 112.4 108.0 371.8
03/09 04:00 13.2 80 9.19 9.8 32 43 1013.3 0 20.9 27.0 42.5 111.7 107.1 368.9
03/09 03:50 13.3 79 9.13 9.7 30 37 1013.1 0 20.7 26.9 42.2 110.9 106.1 365.5
03/09 03:40 13.5 77 9.01 9.6 32 43 1013.1 0 20.5 26.6 41.6 109.3 104.2 358.9
03/09 03:30 13.4 77 8.95 9.5 33 44 1013.3 0 20.4 26.6 41.4 108.8 103.6 356.6
03/09 03:20 13.3 77 8.9 9.4 32 41 1013.3 0 20.3 26.5 41.3 108.4 103.1 354.7
03/09 03:10 13.1 77 8.79 9.2 28 39 1013.4 0 20.0 26.4 40.9 107.5 101.8 350.5
03/09 03:00 13 76 8.62 8.9 28 39 1013.6 0 19.7 26.2 40.3 105.8 99.7 343.0
03/09 02:50 13 76 8.62 8.9 28 43 1013.7 0 19.7 26.2 40.3 105.8 99.7 343.0
03/09 02:40 12.9 76 8.57 8.8 26 39 1013.6 0 19.6 26.1 40.1 105.4 99.2 341.1
03/09 02:30 12.8 77 8.63 8.9 26 35 1013.5 0 19.7 26.2 40.4 106.1 100.1 344.3
03/09 02:20 12.7 77 8.57 8.8 28 41 1013.6 0 19.6 26.2 40.2 105.6 99.4 342.0
03/09 02:10 12.7 77 8.57 8.8 26 41 1013.6 0 19.6 26.2 40.2 105.6 99.4 342.0
03/09 02:00 12.5 78 8.58 8.8 24 33 1013.7 0 19.6 26.3 40.4 106.0 99.8 343.3
03/09 01:50 12.5 77 8.47 8.6 24 32 1013.8 0 19.4 26.1 40.0 104.8 98.4 338.2
03/09 01:40 12.7 77 8.57 8.8 24 35 1013.9 0 19.6 26.2 40.3 105.7 99.5 342.0
03/09 01:30 12.6 76 8.41 8.5 22 32 1014 0 19.2 26.0 39.7 104.1 97.5 335.0
03/09 01:20 12.7 74 8.24 8.2 22 32 1014.1 0 18.9 25.7 38.9 102.1 95.1 326.7
03/09 01:10 12.9 74 8.34 8.4 22 32 1014.2 0 19.1 25.8 39.2 102.9 96.2 330.5
03/09 01:00 13 74 8.39 8.5 28 35 1014.2 0 19.2 25.8 39.4 103.4 96.7 332.4
03/09 00:50 12.8 75 8.4 8.5 26 35 1014.1 0 19.2 25.9 39.5 103.7 97.1 333.7
03/09 00:40 12.8 74 8.29 8.3 24 35 1014 0 19.0 25.7 39.1 102.5 95.6 328.6
03/09 00:30 12.7 74 8.24 8.2 24 39 1014 0 18.9 25.7 38.9 102.1 95.1 326.7
03/09 00:20 12.7 74 8.24 8.2 26 37 1014.1 0 18.9 25.7 38.9 102.1 95.1 326.7
03/09 00:10 12.7 75 8.35 8.4 24 33 1014.3 0 19.1 25.8 39.4 103.3 96.6 331.9
03/09 00:00 12.6 75 8.3 8.3 20 32 1014.5 0 19.0 25.8 39.2 102.9 96.0 330.0
02/09 23:50 12.5 75 8.25 8.2 17 22 1014.5 0 18.9 25.7 39.1 102.5 95.5 328.1
02/09 23:40 12.3 77 8.36 8.4 17 20 1014.7 0 19.1 26.0 39.6 104.0 97.2 334.2
02/09 23:30 12.2 78 8.42 8.5 19 26 1014.7 0 19.3 26.1 39.9 104.8 98.2 337.4
02/09 23:20 12 80 8.53 8.7 17 20 1014.7 0 19.5 26.4 40.5 106.3 99.9 343.5
02/09 23:10 11.9 80 8.47 8.6 15 24 1014.8 0 19.4 26.3 40.3 105.7 99.2 341.1
02/09 23:00 11.8 80 8.42 8.5 15 17 1014.9 0 19.3 26.2 40.1 105.3 98.7 339.2
02/09 22:50 11.7 80 8.37 8.4 13 20 1015.1 0 19.2 26.2 40.0 105.0 98.1 337.3
02/09 22:40 11.4 79 8.11 7.9 11 15 1015.1 0 18.7 25.9 39.1 102.5 95.0 326.3
02/09 22:30 11.5 78 8.06 7.8 11 15 1015 0 18.5 25.7 38.8 101.8 94.2 323.5
02/09 22:20 12.1 77 8.26 8.2 17 30 1015.1 0 18.9 25.9 39.4 103.2 96.2 330.4
02/09 22:10 12.1 77 8.26 8.2 17 26 1015.1 0 18.9 25.9 39.4 103.2 96.2 330.4
02/09 22:00 12.1 78 8.37 8.4 19 30 1015.4 0 19.2 26.1 39.8 104.4 97.7 335.7
02/09 21:50 11.9 81 8.58 8.7 19 24 1015.5 0 19.6 26.5 40.8 107.0 100.8 346.5
02/09 21:40 11.8 84 8.84 9.2 19 26 1015.4 0 20.2 27.0 41.9 110.0 104.4 359.3
02/09 21:30 12 84 8.95 9.4 24 33 1015.4 0 20.4 27.1 42.3 111.0 105.7 363.7
02/09 21:20 12 84 8.95 9.4 26 33 1015.4 0 20.4 27.1 42.3 111.0 105.7 363.7
02/09 21:10 12.3 83 9.01 9.5 26 39 1015.5 0 20.5 27.1 42.4 111.2 106.1 365.2
02/09 21:00 12.8 74 8.29 8.3 17 28 1015.5 0 19.0 25.8 39.1 102.7 95.7 329.0
02/09 20:50 12.6 75 8.3 8.3 15 20 1015.3 0 19.0 25.8 39.3 103.0 96.1 330.2
02/09 20:40 12.5 74 8.14 8 15 19 1015.3 0 18.7 25.6 38.7 101.4 94.1 323.2
02/09 20:30 12.3 73 7.93 7.6 15 20 1015.2 0 18.2 25.3 37.9 99.4 91.6 314.3
02/09 20:20 12.6 72 7.97 7.7 13 17 1015.1 0 18.3 25.3 37.9 99.5 91.7 314.9
02/09 20:10 12.8 72 8.07 7.9 11 17 1015 0 18.5 25.4 38.2 100.3 92.8 318.7
02/09 20:00 12.8 71 7.95 7.7 13 20 1015 0 18.2 25.2 37.8 99.0 91.2 313.2
02/09 19:50 12.9 71 8 7.8 15 20 1015 0 18.3 25.3 37.9 99.4 91.7 315.1
02/09 19:40 13 70 7.94 7.7 17 22 1015 0 18.2 25.1 37.6 98.6 90.8 311.9
02/09 19:30 13 69 7.83 7.5 20 26 1014.8 0 18.0 24.9 37.2 97.5 89.4 306.9
02/09 19:20 13 68 7.71 7.2 19 26 1014.7 0 17.7 24.7 36.7 96.2 87.8 301.4
02/09 19:10 12.8 66 7.39 6.6 15 24 1014.7 0 17.1 24.3 35.6 93.1 83.9 287.7
02/09 19:00 12.7 68 7.57 7 13 20 1014.5 0 17.4 24.6 36.3 95.1 86.3 296.1
02/09 18:50 12.5 71 7.81 7.4 11 15 1014.6 0 18.0 25.0 37.3 97.8 89.7 307.8
02/09 18:40 12.6 75 8.3 8.3 13 15 1014.7 0 19.0 25.8 39.3 103.0 96.0 330.1
02/09 18:30 12.6 76 8.41 8.5 11 17 1014.5 0 19.2 26.0 39.7 104.1 97.5 335.2
02/09 18:20 12.4 77 8.41 8.5 9 15 1014.4 0 19.2 26.0 39.8 104.4 97.7 336.0
02/09 18:10 12.4 76 8.3 8.3 13 17 1014.4 0 19.0 25.9 39.3 103.2 96.3 330.8
02/09 18:00 12.6 75 8.3 8.3 15 20 1014.4 0 19.0 25.8 39.2 102.9 96.0 330.0

Last Refresh: 03-Sep-2026 10:33:11

Bureau of Meteorology